sensor_id;sensor_type;location;lat;lon;timestamp;P1;durP1;ratioP1;P2;durP2;ratioP2
65658;SDS011;60181;53.258;6.932;2022-11-23T00:02:24;6.10;;;3.50;;
65658;SDS011;60181;53.258;6.932;2022-11-23T00:06:52;6.10;;;3.50;;
65658;SDS011;60181;53.258;6.932;2022-11-23T00:11:20;8.10;;;3.40;;
65658;SDS011;60181;53.258;6.932;2022-11-23T00:15:48;8.10;;;3.40;;
65658;SDS011;60181;53.258;6.932;2022-11-23T00:20:16;6.30;;;3.40;;
65658;SDS011;60181;53.258;6.932;2022-11-23T00:24:44;6.30;;;3.40;;
65658;SDS011;60181;53.258;6.932;2022-11-23T00:29:12;7.30;;;3.70;;
65658;SDS011;60181;53.258;6.932;2022-11-23T00:33:40;7.30;;;3.70;;
65658;SDS011;60181;53.258;6.932;2022-11-23T00:38:08;5.70;;;3.70;;
65658;SDS011;60181;53.258;6.932;2022-11-23T00:42:36;5.70;;;3.70;;
65658;SDS011;60181;53.258;6.932;2022-11-23T00:47:04;5.70;;;3.70;;
65658;SDS011;60181;53.258;6.932;2022-11-23T00:51:33;6.60;;;3.20;;
65658;SDS011;60181;53.258;6.932;2022-11-23T00:56:00;6.60;;;3.20;;
65658;SDS011;60181;53.258;6.932;2022-11-23T01:00:28;7.20;;;3.70;;
65658;SDS011;60181;53.258;6.932;2022-11-23T01:04:56;7.20;;;3.70;;
65658;SDS011;60181;53.258;6.932;2022-11-23T01:09:24;5.60;;;3.50;;
65658;SDS011;60181;53.258;6.932;2022-11-23T01:13:52;5.60;;;3.50;;
65658;SDS011;60181;53.258;6.932;2022-11-23T01:18:20;5.90;;;3.90;;
65658;SDS011;60181;53.258;6.932;2022-11-23T01:22:49;5.90;;;3.90;;
65658;SDS011;60181;53.258;6.932;2022-11-23T01:27:16;5.90;;;3.60;;
65658;SDS011;60181;53.258;6.932;2022-11-23T01:31:44;5.90;;;3.60;;
65658;SDS011;60181;53.258;6.932;2022-11-23T01:36:18;5.90;;;3.60;;
65658;SDS011;60181;53.258;6.932;2022-11-23T01:40:40;6.30;;;3.90;;
65658;SDS011;60181;53.258;6.932;2022-11-23T01:45:28;6.30;;;3.90;;
65658;SDS011;60181;53.258;6.932;2022-11-23T01:49:40;7.10;;;4.00;;
65658;SDS011;60181;53.258;6.932;2022-11-23T01:54:06;7.10;;;4.00;;
65658;SDS011;60181;53.258;6.932;2022-11-23T01:58:32;5.30;;;3.50;;
65658;SDS011;60181;53.258;6.932;2022-11-23T02:02:59;5.30;;;3.50;;
65658;SDS011;60181;53.258;6.932;2022-11-23T02:07:27;6.80;;;3.60;;
65658;SDS011;60181;53.258;6.932;2022-11-23T02:11:55;6.80;;;3.60;;
65658;SDS011;60181;53.258;6.932;2022-11-23T02:16:23;6.80;;;3.60;;
65658;SDS011;60181;53.258;6.932;2022-11-23T02:20:52;6.80;;;4.00;;
65658;SDS011;60181;53.258;6.932;2022-11-23T02:29:47;6.10;;;3.90;;
65658;SDS011;60181;53.258;6.932;2022-11-23T02:34:16;6.10;;;3.90;;
65658;SDS011;60181;53.258;6.932;2022-11-23T02:38:43;7.00;;;4.00;;
65658;SDS011;60181;53.258;6.932;2022-11-23T02:43:11;7.00;;;4.00;;
65658;SDS011;60181;53.258;6.932;2022-11-23T02:47:39;6.20;;;3.70;;
65658;SDS011;60181;53.258;6.932;2022-11-23T02:52:07;6.20;;;3.70;;
65658;SDS011;60181;53.258;6.932;2022-11-23T02:56:35;6.20;;;3.70;;
65658;SDS011;60181;53.258;6.932;2022-11-23T03:01:03;6.40;;;3.80;;
65658;SDS011;60181;53.258;6.932;2022-11-23T03:05:32;6.40;;;3.80;;
65658;SDS011;60181;53.258;6.932;2022-11-23T03:09:59;5.40;;;3.70;;
65658;SDS011;60181;53.258;6.932;2022-11-23T03:14:27;5.40;;;3.70;;
65658;SDS011;60181;53.258;6.932;2022-11-23T03:18:55;8.10;;;3.60;;
65658;SDS011;60181;53.258;6.932;2022-11-23T03:23:23;8.10;;;3.60;;
65658;SDS011;60181;53.258;6.932;2022-11-23T03:27:51;10.60;;;3.90;;
65658;SDS011;60181;53.258;6.932;2022-11-23T03:32:19;10.60;;;3.90;;
65658;SDS011;60181;53.258;6.932;2022-11-23T03:36:47;10.60;;;3.90;;
65658;SDS011;60181;53.258;6.932;2022-11-23T03:41:15;11.50;;;4.30;;
65658;SDS011;60181;53.258;6.932;2022-11-23T03:45:43;11.50;;;4.30;;
65658;SDS011;60181;53.258;6.932;2022-11-23T03:50:11;7.80;;;4.10;;
65658;SDS011;60181;53.258;6.932;2022-11-23T03:54:39;7.80;;;4.10;;
65658;SDS011;60181;53.258;6.932;2022-11-23T03:59:07;8.40;;;3.80;;
65658;SDS011;60181;53.258;6.932;2022-11-23T04:03:35;8.40;;;3.80;;
65658;SDS011;60181;53.258;6.932;2022-11-23T04:08:04;7.70;;;3.80;;
65658;SDS011;60181;53.258;6.932;2022-11-23T04:12:31;7.70;;;3.80;;
65658;SDS011;60181;53.258;6.932;2022-11-23T04:16:59;7.70;;;3.80;;
65658;SDS011;60181;53.258;6.932;2022-11-23T04:21:27;24.50;;;4.40;;
65658;SDS011;60181;53.258;6.932;2022-11-23T04:25:55;24.50;;;4.40;;
65658;SDS011;60181;53.258;6.932;2022-11-23T04:30:23;20.40;;;4.50;;
65658;SDS011;60181;53.258;6.932;2022-11-23T04:34:51;20.40;;;4.50;;
65658;SDS011;60181;53.258;6.932;2022-11-23T04:39:19;14.80;;;4.40;;
65658;SDS011;60181;53.258;6.932;2022-11-23T04:43:47;14.80;;;4.40;;
65658;SDS011;60181;53.258;6.932;2022-11-23T04:48:15;12.20;;;4.00;;
65658;SDS011;60181;53.258;6.932;2022-11-23T04:52:43;12.20;;;4.00;;
65658;SDS011;60181;53.258;6.932;2022-11-23T04:57:11;10.70;;;4.20;;
65658;SDS011;60181;53.258;6.932;2022-11-23T05:01:39;10.70;;;4.20;;
65658;SDS011;60181;53.258;6.932;2022-11-23T05:06:07;10.70;;;4.20;;
65658;SDS011;60181;53.258;6.932;2022-11-23T05:10:36;9.00;;;4.30;;
65658;SDS011;60181;53.258;6.932;2022-11-23T05:15:04;9.00;;;4.30;;
65658;SDS011;60181;53.258;6.932;2022-11-23T05:19:31;10.20;;;4.10;;
65658;SDS011;60181;53.258;6.932;2022-11-23T05:23:59;10.20;;;4.10;;
65658;SDS011;60181;53.258;6.932;2022-11-23T05:28:27;8.00;;;3.80;;
65658;SDS011;60181;53.258;6.932;2022-11-23T05:33:01;8.00;;;3.80;;
65658;SDS011;60181;53.258;6.932;2022-11-23T05:37:23;8.90;;;3.90;;
65658;SDS011;60181;53.258;6.932;2022-11-23T05:41:51;8.90;;;3.90;;
65658;SDS011;60181;53.258;6.932;2022-11-23T05:46:19;8.90;;;3.90;;
65658;SDS011;60181;53.258;6.932;2022-11-23T05:50:48;8.70;;;4.00;;
65658;SDS011;60181;53.258;6.932;2022-11-23T05:55:15;8.70;;;4.00;;
65658;SDS011;60181;53.258;6.932;2022-11-23T05:59:43;7.00;;;3.50;;
65658;SDS011;60181;53.258;6.932;2022-11-23T06:04:11;7.00;;;3.50;;
65658;SDS011;60181;53.258;6.932;2022-11-23T06:08:39;6.80;;;3.50;;
65658;SDS011;60181;53.258;6.932;2022-11-23T06:13:07;6.80;;;3.50;;
65658;SDS011;60181;53.258;6.932;2022-11-23T06:17:35;7.00;;;3.60;;
65658;SDS011;60181;53.258;6.932;2022-11-23T06:22:03;7.00;;;3.60;;
65658;SDS011;60181;53.258;6.932;2022-11-23T06:26:31;7.00;;;3.60;;
65658;SDS011;60181;53.258;6.932;2022-11-23T06:31:03;6.80;;;3.60;;
65658;SDS011;60181;53.258;6.932;2022-11-23T06:35:27;6.80;;;3.60;;
65658;SDS011;60181;53.258;6.932;2022-11-23T06:39:55;7.00;;;3.60;;
65658;SDS011;60181;53.258;6.932;2022-11-23T06:44:23;7.00;;;3.60;;
65658;SDS011;60181;53.258;6.932;2022-11-23T06:48:51;6.30;;;3.50;;
65658;SDS011;60181;53.258;6.932;2022-11-23T06:53:19;6.30;;;3.50;;
65658;SDS011;60181;53.258;6.932;2022-11-23T06:57:47;6.40;;;3.40;;
65658;SDS011;60181;53.258;6.932;2022-11-23T07:02:15;6.40;;;3.40;;
65658;SDS011;60181;53.258;6.932;2022-11-23T07:06:43;6.40;;;3.40;;
65658;SDS011;60181;53.258;6.932;2022-11-23T07:11:11;8.40;;;3.80;;
65658;SDS011;60181;53.258;6.932;2022-11-23T07:15:39;8.40;;;3.80;;
65658;SDS011;60181;53.258;6.932;2022-11-23T07:20:08;6.30;;;3.60;;
65658;SDS011;60181;53.258;6.932;2022-11-23T07:24:35;6.30;;;3.60;;
65658;SDS011;60181;53.258;6.932;2022-11-23T07:29:03;7.70;;;3.70;;
65658;SDS011;60181;53.258;6.932;2022-11-23T07:33:31;7.70;;;3.70;;
65658;SDS011;60181;53.258;6.932;2022-11-23T07:37:59;6.90;;;3.20;;
65658;SDS011;60181;53.258;6.932;2022-11-23T07:42:27;6.90;;;3.20;;
65658;SDS011;60181;53.258;6.932;2022-11-23T07:46:55;6.90;;;3.20;;
65658;SDS011;60181;53.258;6.932;2022-11-23T07:51:23;5.30;;;3.20;;
65658;SDS011;60181;53.258;6.932;2022-11-23T07:55:54;5.30;;;3.20;;
65658;SDS011;60181;53.258;6.932;2022-11-23T08:00:22;5.70;;;3.20;;
65658;SDS011;60181;53.258;6.932;2022-11-23T08:04:47;5.70;;;3.20;;
65658;SDS011;60181;53.258;6.932;2022-11-23T08:09:15;6.20;;;3.10;;
65658;SDS011;60181;53.258;6.932;2022-11-23T08:13:43;6.20;;;3.10;;
65658;SDS011;60181;53.258;6.932;2022-11-23T08:18:11;5.80;;;3.00;;
65658;SDS011;60181;53.258;6.932;2022-11-23T08:22:39;5.80;;;3.00;;
65658;SDS011;60181;53.258;6.932;2022-11-23T08:27:07;5.80;;;3.00;;
65658;SDS011;60181;53.258;6.932;2022-11-23T08:31:35;5.40;;;3.00;;
65658;SDS011;60181;53.258;6.932;2022-11-23T08:36:03;5.40;;;3.00;;
65658;SDS011;60181;53.258;6.932;2022-11-23T08:40:31;5.10;;;2.70;;
65658;SDS011;60181;53.258;6.932;2022-11-23T08:44:59;5.10;;;2.70;;
65658;SDS011;60181;53.258;6.932;2022-11-23T08:49:27;6.40;;;2.90;;
65658;SDS011;60181;53.258;6.932;2022-11-23T08:53:55;6.40;;;2.90;;
65658;SDS011;60181;53.258;6.932;2022-11-23T08:58:23;6.50;;;2.70;;
65658;SDS011;60181;53.258;6.932;2022-11-23T09:02:51;6.50;;;2.70;;
65658;SDS011;60181;53.258;6.932;2022-11-23T09:07:19;5.00;;;2.80;;
65658;SDS011;60181;53.258;6.932;2022-11-23T09:11:47;5.00;;;2.80;;
65658;SDS011;60181;53.258;6.932;2022-11-23T09:16:15;5.00;;;2.80;;
65658;SDS011;60181;53.258;6.932;2022-11-23T09:20:43;4.60;;;2.60;;
65658;SDS011;60181;53.258;6.932;2022-11-23T09:25:11;4.60;;;2.60;;
65658;SDS011;60181;53.258;6.932;2022-11-23T09:29:39;5.70;;;2.80;;
65658;SDS011;60181;53.258;6.932;2022-11-23T09:34:07;5.70;;;2.80;;
65658;SDS011;60181;53.258;6.932;2022-11-23T09:38:35;4.90;;;2.60;;
65658;SDS011;60181;53.258;6.932;2022-11-23T09:51:59;6.00;;;2.70;;
65658;SDS011;60181;53.258;6.932;2022-11-23T09:56:28;6.00;;;2.70;;
65658;SDS011;60181;53.258;6.932;2022-11-23T10:00:59;4.60;;;2.70;;
65658;SDS011;60181;53.258;6.932;2022-11-23T10:05:23;4.60;;;2.70;;
65658;SDS011;60181;53.258;6.932;2022-11-23T10:18:49;4.00;;;2.50;;
65658;SDS011;60181;53.258;6.932;2022-11-23T10:27:43;9.70;;;2.60;;
65658;SDS011;60181;53.258;6.932;2022-11-23T10:36:39;9.70;;;2.60;;
65658;SDS011;60181;53.258;6.932;2022-11-23T10:41:12;6.30;;;2.40;;
65658;SDS011;60181;53.258;6.932;2022-11-23T10:45:35;6.30;;;2.40;;
65658;SDS011;60181;53.258;6.932;2022-11-23T10:50:10;4.00;;;2.60;;
65658;SDS011;60181;53.258;6.932;2022-11-23T10:58:59;5.40;;;2.60;;
65658;SDS011;60181;53.258;6.932;2022-11-23T11:03:29;5.40;;;2.60;;
65658;SDS011;60181;53.258;6.932;2022-11-23T11:07:55;5.60;;;2.50;;
65658;SDS011;60181;53.258;6.932;2022-11-23T11:12:23;5.60;;;2.50;;
65658;SDS011;60181;53.258;6.932;2022-11-23T11:16:51;5.60;;;2.50;;
65658;SDS011;60181;53.258;6.932;2022-11-23T11:21:20;6.20;;;2.60;;
65658;SDS011;60181;53.258;6.932;2022-11-23T11:25:47;6.20;;;2.60;;
65658;SDS011;60181;53.258;6.932;2022-11-23T11:30:24;5.70;;;2.40;;
65658;SDS011;60181;53.258;6.932;2022-11-23T11:34:51;5.70;;;2.40;;
65658;SDS011;60181;53.258;6.932;2022-11-23T11:39:14;6.10;;;2.60;;
65658;SDS011;60181;53.258;6.932;2022-11-23T11:43:40;6.10;;;2.60;;
65658;SDS011;60181;53.258;6.932;2022-11-23T11:48:08;6.10;;;2.50;;
65658;SDS011;60181;53.258;6.932;2022-11-23T11:52:36;6.10;;;2.50;;
65658;SDS011;60181;53.258;6.932;2022-11-23T11:57:04;6.10;;;2.50;;
65658;SDS011;60181;53.258;6.932;2022-11-23T12:06:03;5.10;;;2.40;;
65658;SDS011;60181;53.258;6.932;2022-11-23T12:10:28;5.50;;;2.30;;
65658;SDS011;60181;53.258;6.932;2022-11-23T12:14:55;5.50;;;2.30;;
65658;SDS011;60181;53.258;6.932;2022-11-23T12:19:29;4.50;;;2.40;;
65658;SDS011;60181;53.258;6.932;2022-11-23T12:23:53;4.50;;;2.40;;
65658;SDS011;60181;53.258;6.932;2022-11-23T12:28:34;5.40;;;2.70;;
65658;SDS011;60181;53.258;6.932;2022-11-23T12:46:17;4.40;;;2.50;;
65658;SDS011;60181;53.258;6.932;2022-11-23T12:50:42;6.40;;;2.60;;
65658;SDS011;60181;53.258;6.932;2022-11-23T12:55:28;6.40;;;2.60;;
65658;SDS011;60181;53.258;6.932;2022-11-23T12:59:45;5.50;;;2.60;;
65658;SDS011;60181;53.258;6.932;2022-11-23T13:04:25;5.50;;;2.60;;
65658;SDS011;60181;53.258;6.932;2022-11-23T13:13:05;6.50;;;2.40;;
65658;SDS011;60181;53.258;6.932;2022-11-23T13:21:54;6.50;;;2.60;;
65658;SDS011;60181;53.258;6.932;2022-11-23T13:26:26;6.50;;;2.60;;
65658;SDS011;60181;53.258;6.932;2022-11-23T13:44:22;6.30;;;2.60;;
65658;SDS011;60181;53.258;6.932;2022-11-23T13:48:43;7.60;;;2.90;;
65658;SDS011;60181;53.258;6.932;2022-11-23T13:53:24;7.60;;;2.90;;
65658;SDS011;60181;53.258;6.932;2022-11-23T13:57:42;8.30;;;3.00;;
65658;SDS011;60181;53.258;6.932;2022-11-23T14:11:09;10.70;;;3.40;;
65658;SDS011;60181;53.258;6.932;2022-11-23T14:15:31;10.70;;;3.40;;
65658;SDS011;60181;53.258;6.932;2022-11-23T14:29:03;8.10;;;3.10;;
65658;SDS011;60181;53.258;6.932;2022-11-23T14:33:33;8.10;;;3.10;;
65658;SDS011;60181;53.258;6.932;2022-11-23T14:37:55;9.10;;;3.10;;
65658;SDS011;60181;53.258;6.932;2022-11-23T14:42:20;9.10;;;3.10;;
65658;SDS011;60181;53.258;6.932;2022-11-23T14:47:02;9.10;;;3.10;;
65658;SDS011;60181;53.258;6.932;2022-11-23T14:51:18;7.20;;;3.00;;
65658;SDS011;60181;53.258;6.932;2022-11-23T14:55:42;7.20;;;3.00;;
65658;SDS011;60181;53.258;6.932;2022-11-23T15:00:24;7.30;;;3.10;;
65658;SDS011;60181;53.258;6.932;2022-11-23T15:04:39;7.30;;;3.10;;
65658;SDS011;60181;53.258;6.932;2022-11-23T15:09:07;8.00;;;3.10;;
65658;SDS011;60181;53.258;6.932;2022-11-23T15:13:45;8.00;;;3.10;;
65658;SDS011;60181;53.258;6.932;2022-11-23T15:18:02;6.60;;;2.90;;
65658;SDS011;60181;53.258;6.932;2022-11-23T15:22:30;6.60;;;2.90;;
65658;SDS011;60181;53.258;6.932;2022-11-23T15:27:03;6.60;;;2.90;;
65658;SDS011;60181;53.258;6.932;2022-11-23T15:31:33;7.40;;;2.70;;
65658;SDS011;60181;53.258;6.932;2022-11-23T15:35:54;7.40;;;2.70;;
65658;SDS011;60181;53.258;6.932;2022-11-23T15:40:22;7.00;;;3.10;;
65658;SDS011;60181;53.258;6.932;2022-11-23T15:44:50;7.00;;;3.10;;
65658;SDS011;60181;53.258;6.932;2022-11-23T15:49:18;6.30;;;2.90;;
65658;SDS011;60181;53.258;6.932;2022-11-23T15:53:48;6.30;;;2.90;;
65658;SDS011;60181;53.258;6.932;2022-11-23T15:58:17;6.20;;;2.70;;
65658;SDS011;60181;53.258;6.932;2022-11-23T16:02:42;6.20;;;2.70;;
65658;SDS011;60181;53.258;6.932;2022-11-23T16:07:20;6.90;;;2.50;;
65658;SDS011;60181;53.258;6.932;2022-11-23T16:11:42;6.90;;;2.50;;
65658;SDS011;60181;53.258;6.932;2022-11-23T16:16:08;6.90;;;2.50;;
65658;SDS011;60181;53.258;6.932;2022-11-23T16:20:34;6.50;;;2.80;;
65658;SDS011;60181;53.258;6.932;2022-11-23T16:25:06;6.50;;;2.80;;
65658;SDS011;60181;53.258;6.932;2022-11-23T16:29:35;8.80;;;2.90;;
65658;SDS011;60181;53.258;6.932;2022-11-23T16:33:58;8.80;;;2.90;;
65658;SDS011;60181;53.258;6.932;2022-11-23T16:38:26;9.90;;;2.90;;
65658;SDS011;60181;53.258;6.932;2022-11-23T16:42:54;9.90;;;2.90;;
65658;SDS011;60181;53.258;6.932;2022-11-23T16:47:25;6.90;;;2.60;;
65658;SDS011;60181;53.258;6.932;2022-11-23T16:51:50;6.90;;;2.60;;
65658;SDS011;60181;53.258;6.932;2022-11-23T16:56:19;6.90;;;2.60;;
65658;SDS011;60181;53.258;6.932;2022-11-23T17:00:46;4.60;;;2.50;;
65658;SDS011;60181;53.258;6.932;2022-11-23T17:05:15;4.60;;;2.50;;
65658;SDS011;60181;53.258;6.932;2022-11-23T17:09:42;6.40;;;2.60;;
65658;SDS011;60181;53.258;6.932;2022-11-23T17:14:13;6.40;;;2.60;;
65658;SDS011;60181;53.258;6.932;2022-11-23T17:18:38;5.80;;;2.50;;
65658;SDS011;60181;53.258;6.932;2022-11-23T17:23:06;5.80;;;2.50;;
65658;SDS011;60181;53.258;6.932;2022-11-23T17:27:35;6.40;;;2.50;;
65658;SDS011;60181;53.258;6.932;2022-11-23T17:32:02;6.40;;;2.50;;
65658;SDS011;60181;53.258;6.932;2022-11-23T17:36:30;6.40;;;2.50;;
65658;SDS011;60181;53.258;6.932;2022-11-23T17:40:58;5.80;;;2.60;;
65658;SDS011;60181;53.258;6.932;2022-11-23T17:45:26;5.80;;;2.60;;
65658;SDS011;60181;53.258;6.932;2022-11-23T17:49:54;8.70;;;2.90;;
65658;SDS011;60181;53.258;6.932;2022-11-23T17:54:22;8.70;;;2.90;;
65658;SDS011;60181;53.258;6.932;2022-11-23T17:58:50;7.60;;;2.90;;
65658;SDS011;60181;53.258;6.932;2022-11-23T18:03:18;7.60;;;2.90;;
65658;SDS011;60181;53.258;6.932;2022-11-23T18:07:46;6.50;;;2.70;;
65658;SDS011;60181;53.258;6.932;2022-11-23T18:12:14;6.50;;;2.70;;
65658;SDS011;60181;53.258;6.932;2022-11-23T18:16:42;6.50;;;2.70;;
65658;SDS011;60181;53.258;6.932;2022-11-23T18:21:10;5.80;;;2.70;;
65658;SDS011;60181;53.258;6.932;2022-11-23T18:25:38;5.80;;;2.70;;
65658;SDS011;60181;53.258;6.932;2022-11-23T18:30:06;6.50;;;2.70;;
65658;SDS011;60181;53.258;6.932;2022-11-23T18:34:34;6.50;;;2.70;;
65658;SDS011;60181;53.258;6.932;2022-11-23T18:39:02;7.10;;;2.60;;
65658;SDS011;60181;53.258;6.932;2022-11-23T18:43:30;7.10;;;2.60;;
65658;SDS011;60181;53.258;6.932;2022-11-23T18:47:58;6.60;;;2.70;;
65658;SDS011;60181;53.258;6.932;2022-11-23T18:52:26;6.60;;;2.70;;
65658;SDS011;60181;53.258;6.932;2022-11-23T18:56:54;6.60;;;2.70;;
65658;SDS011;60181;53.258;6.932;2022-11-23T19:01:22;5.30;;;2.50;;
65658;SDS011;60181;53.258;6.932;2022-11-23T19:05:50;5.30;;;2.50;;
65658;SDS011;60181;53.258;6.932;2022-11-23T19:10:18;4.30;;;2.40;;
65658;SDS011;60181;53.258;6.932;2022-11-23T19:14:46;4.30;;;2.40;;
65658;SDS011;60181;53.258;6.932;2022-11-23T19:19:14;6.80;;;2.60;;
65658;SDS011;60181;53.258;6.932;2022-11-23T19:23:42;6.80;;;2.60;;
65658;SDS011;60181;53.258;6.932;2022-11-23T19:28:10;6.30;;;2.30;;
65658;SDS011;60181;53.258;6.932;2022-11-23T19:32:38;6.30;;;2.30;;
65658;SDS011;60181;53.258;6.932;2022-11-23T19:37:06;6.30;;;2.30;;
65658;SDS011;60181;53.258;6.932;2022-11-23T19:41:34;4.90;;;2.30;;
65658;SDS011;60181;53.258;6.932;2022-11-23T19:46:02;4.90;;;2.30;;
65658;SDS011;60181;53.258;6.932;2022-11-23T19:50:30;6.20;;;2.30;;
65658;SDS011;60181;53.258;6.932;2022-11-23T19:54:58;6.20;;;2.30;;
65658;SDS011;60181;53.258;6.932;2022-11-23T19:59:26;5.90;;;2.30;;
65658;SDS011;60181;53.258;6.932;2022-11-23T20:03:54;5.90;;;2.30;;
65658;SDS011;60181;53.258;6.932;2022-11-23T20:08:22;6.10;;;2.20;;
65658;SDS011;60181;53.258;6.932;2022-11-23T20:12:50;6.10;;;2.20;;
65658;SDS011;60181;53.258;6.932;2022-11-23T20:17:18;5.40;;;2.40;;
65658;SDS011;60181;53.258;6.932;2022-11-23T20:21:46;5.40;;;2.40;;
65658;SDS011;60181;53.258;6.932;2022-11-23T20:26:14;5.40;;;2.40;;
65658;SDS011;60181;53.258;6.932;2022-11-23T20:30:42;6.10;;;2.30;;
65658;SDS011;60181;53.258;6.932;2022-11-23T20:35:10;6.10;;;2.30;;
65658;SDS011;60181;53.258;6.932;2022-11-23T20:39:38;7.30;;;2.50;;
65658;SDS011;60181;53.258;6.932;2022-11-23T20:44:09;7.30;;;2.50;;
65658;SDS011;60181;53.258;6.932;2022-11-23T20:48:34;6.10;;;2.40;;
65658;SDS011;60181;53.258;6.932;2022-11-23T20:53:02;6.10;;;2.40;;
65658;SDS011;60181;53.258;6.932;2022-11-23T20:57:30;5.10;;;2.20;;
65658;SDS011;60181;53.258;6.932;2022-11-23T21:01:58;5.10;;;2.20;;
65658;SDS011;60181;53.258;6.932;2022-11-23T21:06:26;5.10;;;2.20;;
65658;SDS011;60181;53.258;6.932;2022-11-23T21:10:54;6.70;;;2.50;;
65658;SDS011;60181;53.258;6.932;2022-11-23T21:15:22;6.70;;;2.50;;
65658;SDS011;60181;53.258;6.932;2022-11-23T21:19:50;4.70;;;2.30;;
65658;SDS011;60181;53.258;6.932;2022-11-23T21:24:18;4.70;;;2.30;;
65658;SDS011;60181;53.258;6.932;2022-11-23T21:28:46;5.00;;;2.40;;
65658;SDS011;60181;53.258;6.932;2022-11-23T21:33:14;5.00;;;2.40;;
65658;SDS011;60181;53.258;6.932;2022-11-23T21:37:42;4.30;;;2.30;;
65658;SDS011;60181;53.258;6.932;2022-11-23T21:42:10;4.30;;;2.30;;
65658;SDS011;60181;53.258;6.932;2022-11-23T21:46:38;4.30;;;2.30;;
65658;SDS011;60181;53.258;6.932;2022-11-23T21:51:07;7.00;;;2.40;;
65658;SDS011;60181;53.258;6.932;2022-11-23T21:55:34;7.00;;;2.40;;
65658;SDS011;60181;53.258;6.932;2022-11-23T22:00:02;4.70;;;2.40;;
65658;SDS011;60181;53.258;6.932;2022-11-23T22:04:30;4.70;;;2.40;;
65658;SDS011;60181;53.258;6.932;2022-11-23T22:08:58;6.40;;;2.30;;
65658;SDS011;60181;53.258;6.932;2022-11-23T22:13:26;6.40;;;2.30;;
65658;SDS011;60181;53.258;6.932;2022-11-23T22:17:54;6.10;;;2.30;;
65658;SDS011;60181;53.258;6.932;2022-11-23T22:22:22;6.10;;;2.30;;
65658;SDS011;60181;53.258;6.932;2022-11-23T22:26:50;6.10;;;2.30;;
65658;SDS011;60181;53.258;6.932;2022-11-23T22:31:19;4.50;;;2.20;;
65658;SDS011;60181;53.258;6.932;2022-11-23T22:35:46;4.50;;;2.20;;
65658;SDS011;60181;53.258;6.932;2022-11-23T22:40:14;7.10;;;2.30;;
65658;SDS011;60181;53.258;6.932;2022-11-23T22:44:42;7.10;;;2.30;;
65658;SDS011;60181;53.258;6.932;2022-11-23T22:49:10;4.10;;;2.30;;
65658;SDS011;60181;53.258;6.932;2022-11-23T22:53:38;4.10;;;2.30;;
65658;SDS011;60181;53.258;6.932;2022-11-23T22:58:06;5.30;;;2.30;;
65658;SDS011;60181;53.258;6.932;2022-11-23T23:02:34;5.30;;;2.30;;
65658;SDS011;60181;53.258;6.932;2022-11-23T23:07:02;5.30;;;2.30;;
65658;SDS011;60181;53.258;6.932;2022-11-23T23:11:30;6.00;;;2.60;;
65658;SDS011;60181;53.258;6.932;2022-11-23T23:15:58;6.00;;;2.60;;
65658;SDS011;60181;53.258;6.932;2022-11-23T23:20:26;4.20;;;2.30;;
65658;SDS011;60181;53.258;6.932;2022-11-23T23:24:54;4.20;;;2.30;;
65658;SDS011;60181;53.258;6.932;2022-11-23T23:29:22;5.00;;;2.50;;
65658;SDS011;60181;53.258;6.932;2022-11-23T23:33:50;5.00;;;2.50;;
65658;SDS011;60181;53.258;6.932;2022-11-23T23:38:18;5.50;;;2.30;;
65658;SDS011;60181;53.258;6.932;2022-11-23T23:42:46;5.50;;;2.30;;
65658;SDS011;60181;53.258;6.932;2022-11-23T23:47:14;5.80;;;2.70;;
65658;SDS011;60181;53.258;6.932;2022-11-23T23:51:42;5.80;;;2.70;;
65658;SDS011;60181;53.258;6.932;2022-11-23T23:56:27;5.80;;;2.70;;
